Time;durP1;ratioP1;P1;durP2;ratioP2;P2;SDS_P1;SDS_P2;PMS_P1;PMS_P2;Temp;Humidity;BMP_temperature;BMP_pressure;BME280_temperature;BME280_humidity;BME280_pressure;Samples;Min_cycle;Max_cycle;Signal;HPM_P1;HPM_P2
2023/01/20 00:01:14;;;;;;;22.93;13.07;;;1.40;99.90;;;;;;5020258;28;20291;-61
2023/01/20 00:03:41;;;;;;;16.10;10.20;;;1.40;99.90;;;;;;5031317;28;20905;-61
2023/01/20 00:06:08;;;;;;;20.07;11.87;;;1.30;99.90;;;;;;5023568;28;20224;-60
2023/01/20 00:08:35;;;;;;;21.57;12.30;;;1.30;99.90;;;;;;5015607;28;20222;-60
2023/01/20 00:11:07;;;;;;;18.37;11.03;;;1.30;99.90;;;;;;5018582;28;21017;-60
2023/01/20 00:13:35;;;;;;;20.27;10.83;;;1.40;99.90;;;;;;5030895;28;20685;-60
2023/01/20 00:16:07;;;;;;;19.27;10.47;;;1.30;99.90;;;;;;5028797;28;20627;-61
2023/01/20 00:18:35;;;;;;;20.63;10.77;;;1.30;99.90;;;;;;5028649;28;20214;-61
2023/01/20 00:21:07;;;;;;;16.80;9.43;;;1.40;99.90;;;;;;5028385;28;20199;-61
2023/01/20 00:23:34;;;;;;;17.27;9.53;;;1.30;99.90;;;;;;5033099;28;20592;-62
2023/01/20 00:26:10;;;;;;;19.87;11.87;;;1.30;99.90;;;;;;5029176;28;20220;-61
2023/01/20 00:28:37;;;;;;;17.10;10.27;;;1.40;99.90;;;;;;5030912;28;20203;-61
2023/01/20 00:31:25;;;;;;;18.63;10.43;;;1.40;99.90;;;;;;5025999;28;20219;-61
2023/01/20 00:33:53;;;;;;;19.73;11.23;;;1.30;99.90;;;;;;5032116;28;20204;-61
2023/01/20 00:36:21;;;;;;;18.80;10.83;;;1.40;99.90;;;;;;5034870;28;20268;-61
2023/01/20 00:38:48;;;;;;;19.67;11.53;;;1.50;99.90;;;;;;5036075;28;20211;-63
2023/01/20 00:41:16;;;;;;;24.53;12.27;;;1.80;99.90;;;;;;5037124;28;20216;-63
2023/01/20 00:43:44;;;;;;;22.60;12.03;;;1.90;99.90;;;;;;5035700;28;20239;-62
2023/01/20 00:46:12;;;;;;;24.27;13.27;;;2.10;99.90;;;;;;5036565;28;20298;-62
2023/01/20 00:48:38;;;;;;;24.07;12.53;;;2.00;99.90;;;;;;5034770;28;20270;-62
2023/01/20 00:51:07;;;;;;;24.33;14.10;;;1.90;99.90;;;;;;5029859;28;20682;-61
2023/01/20 00:53:34;;;;;;;20.73;12.00;;;1.80;99.90;;;;;;5031315;28;20232;-61
2023/01/20 00:56:01;;;;;;;25.17;13.10;;;1.70;99.90;;;;;;5033297;28;20224;-62
2023/01/20 00:58:28;;;;;;;22.60;12.30;;;1.70;99.90;;;;;;5036522;28;20200;-61
2023/01/20 01:00:57;;;;;;;24.07;12.37;;;1.60;99.90;;;;;;5038079;28;20568;-61
2023/01/20 01:03:26;;;;;;;20.37;12.70;;;1.70;99.90;;;;;;5034833;28;20206;-61
2023/01/20 01:05:54;;;;;;;19.33;11.97;;;1.70;99.90;;;;;;5036105;28;20215;-61
2023/01/20 01:08:20;;;;;;;21.27;11.17;;;1.70;99.90;;;;;;5036843;28;20623;-65
2023/01/20 01:10:47;;;;;;;19.60;11.23;;;1.60;99.90;;;;;;5036300;28;20204;-61
2023/01/20 01:13:14;;;;;;;21.77;12.27;;;1.50;99.90;;;;;;5036532;28;20230;-62
2023/01/20 01:15:48;;;;;;;21.47;13.13;;;1.60;99.90;;;;;;5037970;28;20247;-61
2023/01/20 01:18:15;;;;;;;23.20;13.13;;;1.70;99.90;;;;;;5038280;28;20218;-60
2023/01/20 01:20:43;;;;;;;24.77;13.60;;;1.60;99.90;;;;;;5034449;28;20218;-60
2023/01/20 01:23:11;;;;;;;27.70;15.00;;;1.50;99.90;;;;;;5036715;28;20226;-60
2023/01/20 01:25:38;;;;;;;31.30;15.77;;;1.50;99.90;;;;;;5036401;28;20219;-60
2023/01/20 01:28:05;;;;;;;29.30;15.43;;;1.40;99.90;;;;;;5036830;28;20232;-60
2023/01/20 01:30:32;;;;;;;33.87;17.63;;;1.50;99.90;;;;;;5029960;28;20201;-60
2023/01/20 01:32:59;;;;;;;29.93;16.20;;;1.40;99.90;;;;;;5028688;28;20226;-60
2023/01/20 01:35:25;;;;;;;33.63;16.27;;;1.30;99.90;;;;;;5029466;28;20202;-60
2023/01/20 01:37:52;;;;;;;36.57;18.37;;;1.30;99.90;;;;;;5030525;28;20207;-60
2023/01/20 01:40:19;;;;;;;36.17;17.37;;;1.40;99.90;;;;;;5033404;28;20205;-60
2023/01/20 01:42:46;;;;;;;36.30;17.17;;;1.40;99.90;;;;;;5037307;28;20220;-60
2023/01/20 01:45:12;;;;;;;39.57;17.47;;;1.30;99.90;;;;;;5037400;28;20309;-61
2023/01/20 01:47:43;;;;;;;39.00;17.30;;;1.30;99.90;;;;;;5037641;28;20658;-60
2023/01/20 01:50:13;;;;;;;35.50;16.63;;;1.30;99.90;;;;;;5037462;28;20294;-61
2023/01/20 01:52:43;;;;;;;38.70;15.73;;;1.20;99.90;;;;;;5037013;28;20204;-60
2023/01/20 01:55:10;;;;;;;40.63;18.07;;;1.20;99.90;;;;;;5037626;28;20299;-60
2023/01/20 01:57:38;;;;;;;35.10;17.03;;;1.30;99.90;;;;;;5037140;28;20290;-60
2023/01/20 02:00:05;;;;;;;40.17;17.97;;;1.20;99.90;;;;;;5037902;28;20221;-60
2023/01/20 02:02:34;;;;;;;37.90;17.17;;;1.20;99.90;;;;;;5036962;28;20248;-58
2023/01/20 02:05:02;;;;;;;40.37;17.37;;;1.20;99.90;;;;;;5037686;28;20218;-58
2023/01/20 02:07:32;;;;;;;42.13;18.13;;;1.20;99.90;;;;;;5028205;28;20203;-58
2023/01/20 02:10:00;;;;;;;40.73;17.47;;;1.20;99.90;;;;;;5033557;28;20238;-59
2023/01/20 02:12:28;;;;;;;37.70;15.23;;;1.20;99.90;;;;;;5032125;28;20220;-58
2023/01/20 02:14:58;;;;;;;40.70;18.53;;;1.20;99.90;;;;;;5029936;28;20382;-60
2023/01/20 02:17:33;;;;;;;38.20;18.33;;;1.30;99.90;;;;;;5031840;28;20211;-58
2023/01/20 02:20:09;;;;;;;38.60;17.53;;;1.20;99.90;;;;;;5031031;28;20207;-59
2023/01/20 02:23:01;;;;;;;41.30;18.60;;;1.20;99.90;;;;;;5029180;28;20202;-59
2023/01/20 02:25:37;;;;;;;40.50;16.97;;;1.20;99.90;;;;;;5032823;28;20224;-59
2023/01/20 02:28:53;;;;;;;38.40;18.57;;;1.30;99.90;;;;;;5031623;28;20203;-58
2023/01/20 02:31:57;;;;;;;40.13;17.47;;;1.30;99.90;;;;;;5004938;28;20204;-58
2023/01/20 02:34:50;;;;;;;43.53;18.33;;;1.20;99.90;;;;;;5029101;28;20649;-59
2023/01/20 02:37:45;;;;;;;37.63;16.60;;;1.30;99.90;;;;;;5023746;28;20227;-59
2023/01/20 02:40:23;;;;;;;37.97;16.77;;;1.20;99.90;;;;;;5033683;28;20202;-60
2023/01/20 02:43:16;;;;;;;35.97;17.20;;;1.20;99.90;;;;;;5035836;28;20202;-59
2023/01/20 02:45:55;;;;;;;41.17;17.43;;;1.30;99.90;;;;;;5031477;28;20643;-59
2023/01/20 02:48:35;;;;;;;42.17;16.93;;;1.20;99.90;;;;;;5028140;28;20229;-58
2023/01/20 02:51:16;;;;;;;34.90;16.50;;;1.20;99.90;;;;;;5029943;28;20761;-58
2023/01/20 02:53:48;;;;;;;36.60;17.33;;;1.20;99.90;;;;;;5032071;28;20194;-60
2023/01/20 02:56:18;;;;;;;34.57;16.67;;;1.20;99.90;;;;;;5032324;28;20226;-64
2023/01/20 02:58:53;;;;;;;36.17;16.30;;;1.10;99.90;;;;;;5033692;28;20331;-58
2023/01/20 03:01:25;;;;;;;35.77;16.33;;;1.20;99.90;;;;;;5032461;28;20194;-58
2023/01/20 03:03:56;;;;;;;32.63;15.00;;;1.10;99.90;;;;;;5032739;28;20199;-58
2023/01/20 03:06:26;;;;;;;30.63;12.67;;;1.10;99.90;;;;;;5029481;28;20253;-61
2023/01/20 03:08:55;;;;;;;42.50;15.93;;;1.10;99.90;;;;;;5028219;28;20206;-58
2023/01/20 03:11:22;;;;;;;32.80;16.03;;;1.10;99.90;;;;;;5032446;28;20200;-61
2023/01/20 03:13:51;;;;;;;39.17;15.13;;;1.00;99.90;;;;;;5031119;28;20276;-59
2023/01/20 03:16:22;;;;;;;35.07;15.87;;;1.00;99.90;;;;;;5031842;28;20219;-57
2023/01/20 03:18:50;;;;;;;33.97;14.73;;;1.00;99.90;;;;;;5028712;28;20215;-58
2023/01/20 03:21:17;;;;;;;39.63;16.40;;;0.90;99.90;;;;;;5030425;28;20215;-60
2023/01/20 03:23:54;;;;;;;33.40;15.53;;;1.00;99.90;;;;;;5022853;28;20203;-58
2023/01/20 03:26:22;;;;;;;41.27;16.37;;;0.90;99.90;;;;;;5030924;28;20302;-61
2023/01/20 03:28:49;;;;;;;36.67;16.80;;;0.90;99.90;;;;;;5030146;28;20260;-58
2023/01/20 03:31:18;;;;;;;43.47;17.03;;;0.90;99.90;;;;;;5035643;28;20207;-58
2023/01/20 03:33:47;;;;;;;42.00;18.40;;;1.00;99.90;;;;;;5038137;28;20642;-58
2023/01/20 03:36:16;;;;;;;41.43;16.87;;;1.00;99.90;;;;;;5039512;28;20228;-59
2023/01/20 03:38:44;;;;;;;36.37;15.93;;;1.10;99.90;;;;;;5037102;28;20293;-58
2023/01/20 03:41:11;;;;;;;42.53;17.77;;;0.90;99.90;;;;;;5039931;28;20675;-58
2023/01/20 03:44:05;;;;;;;40.37;17.17;;;1.00;99.90;;;;;;5038035;28;20201;-58
2023/01/20 03:46:49;;;;;;;42.50;17.40;;;1.00;99.90;;;;;;5038590;28;20257;-59
2023/01/20 03:49:30;;;;;;;39.90;17.60;;;1.10;99.90;;;;;;5038083;28;20280;-58
2023/01/20 03:52:00;;;;;;;40.13;18.30;;;1.10;99.90;;;;;;5036342;28;20369;-59
2023/01/20 03:54:33;;;;;;;42.97;18.50;;;1.00;99.90;;;;;;5037640;28;20720;-60
2023/01/20 03:57:12;;;;;;;39.57;17.40;;;1.00;99.90;;;;;;5037568;28;20234;-60
2023/01/20 03:59:40;;;;;;;43.13;17.43;;;1.00;99.90;;;;;;5038661;28;20229;-59
2023/01/20 04:02:09;;;;;;;41.17;17.17;;;1.00;99.90;;;;;;5039526;28;20220;-58
2023/01/20 04:04:39;;;;;;;44.83;19.53;;;0.90;99.90;;;;;;5040488;28;20214;-59
2023/01/20 04:07:13;;;;;;;39.37;18.90;;;0.90;99.90;;;;;;5037867;28;20239;-59
2023/01/20 04:09:46;;;;;;;48.17;18.70;;;0.90;99.90;;;;;;5036737;28;20201;-59
2023/01/20 04:12:13;;;;;;;44.83;19.90;;;1.00;99.90;;;;;;5034768;28;20202;-60
2023/01/20 04:14:40;;;;;;;49.03;20.07;;;0.90;99.90;;;;;;5031077;28;20198;-59
2023/01/20 04:17:07;;;;;;;42.80;18.97;;;0.90;99.90;;;;;;5029690;28;20591;-59
2023/01/20 04:19:34;;;;;;;41.27;18.03;;;0.90;99.90;;;;;;5029230;28;20656;-58
2023/01/20 04:22:10;;;;;;;41.90;18.73;;;0.90;99.90;;;;;;5030369;28;20539;-58
2023/01/20 04:24:48;;;;;;;44.17;19.47;;;0.90;99.90;;;;;;5028205;28;20310;-58
2023/01/20 04:27:15;;;;;;;40.87;18.97;;;0.90;99.90;;;;;;5025389;28;20814;-61
2023/01/20 04:29:41;;;;;;;42.30;18.83;;;0.90;99.90;;;;;;5025769;28;20317;-60
2023/01/20 04:32:10;;;;;;;43.13;18.03;;;0.90;99.90;;;;;;5028286;28;20204;-59
2023/01/20 04:34:37;;;;;;;49.73;20.87;;;0.90;99.90;;;;;;5032569;28;20296;-58
2023/01/20 04:37:04;;;;;;;49.73;20.07;;;0.80;99.90;;;;;;5028767;28;20231;-62
2023/01/20 04:39:30;;;;;;;50.33;20.90;;;0.80;99.90;;;;;;5030169;28;20285;-61
2023/01/20 04:41:57;;;;;;;44.70;19.07;;;0.90;99.90;;;;;;5029606;28;20315;-58
2023/01/20 04:44:24;;;;;;;48.83;20.27;;;0.80;99.90;;;;;;5029432;28;20698;-58
2023/01/20 04:46:56;;;;;;;53.13;21.73;;;0.90;99.90;;;;;;5025380;28;20221;-60
2023/01/20 04:49:22;;;;;;;53.23;20.37;;;0.90;99.90;;;;;;5028400;28;20242;-58
2023/01/20 04:51:49;;;;;;;43.53;20.20;;;0.90;99.90;;;;;;5027698;28;20207;-59
2023/01/20 04:54:16;;;;;;;43.43;20.03;;;0.90;99.90;;;;;;5028853;28;20294;-58
2023/01/20 04:56:43;;;;;;;40.30;18.93;;;1.00;99.90;;;;;;5030195;28;20572;-59
2023/01/20 04:59:10;;;;;;;47.43;20.20;;;0.90;99.90;;;;;;5029362;28;20208;-59
2023/01/20 05:01:36;;;;;;;45.53;19.57;;;1.00;99.90;;;;;;5027417;28;20373;-60
2023/01/20 05:04:03;;;;;;;37.93;17.23;;;0.90;99.90;;;;;;5029602;28;20255;-60
2023/01/20 05:06:30;;;;;;;29.17;13.07;;;0.90;99.90;;;;;;5028154;28;20242;-60
2023/01/20 05:08:57;;;;;;;33.00;16.83;;;0.80;99.90;;;;;;5036563;28;20702;-61
2023/01/20 05:11:24;;;;;;;37.90;16.53;;;0.80;99.90;;;;;;5036836;28;20661;-59
2023/01/20 05:13:50;;;;;;;42.03;17.53;;;0.80;99.90;;;;;;5034065;28;20206;-60
2023/01/20 05:16:22;;;;;;;37.17;17.20;;;0.80;99.90;;;;;;5026019;28;21038;-61
2023/01/20 05:18:49;;;;;;;36.80;15.13;;;0.80;99.90;;;;;;5027879;28;20557;-59
2023/01/20 05:21:16;;;;;;;39.77;16.20;;;0.80;99.90;;;;;;5028321;28;20210;-58
2023/01/20 05:23:43;;;;;;;37.13;16.17;;;0.80;99.90;;;;;;5028600;28;20207;-58
2023/01/20 05:26:10;;;;;;;41.40;16.77;;;0.70;99.90;;;;;;5026778;28;20245;-59
2023/01/20 05:28:37;;;;;;;42.87;17.07;;;0.70;99.90;;;;;;5028045;28;20199;-59
2023/01/20 05:31:04;;;;;;;37.97;17.17;;;0.80;99.90;;;;;;5028588;28;20285;-58
2023/01/20 05:33:30;;;;;;;35.80;16.67;;;0.80;99.90;;;;;;5029765;28;20202;-60
2023/01/20 05:35:57;;;;;;;36.03;16.23;;;0.70;99.90;;;;;;5028166;28;20234;-61
2023/01/20 05:38:24;;;;;;;33.67;15.93;;;0.70;99.90;;;;;;5026204;28;20210;-60
2023/01/20 05:40:58;;;;;;;36.13;15.93;;;0.80;99.90;;;;;;5028901;28;20672;-60
2023/01/20 05:43:26;;;;;;;36.87;17.03;;;0.80;99.90;;;;;;5030162;28;20199;-60
2023/01/20 05:45:53;;;;;;;35.77;16.93;;;0.80;99.90;;;;;;5031156;28;20208;-60
2023/01/20 05:48:20;;;;;;;38.73;16.97;;;0.80;99.90;;;;;;5032520;28;20231;-60
2023/01/20 05:50:47;;;;;;;38.27;17.27;;;0.90;99.90;;;;;;5037894;28;20289;-62
2023/01/20 05:53:14;;;;;;;43.17;16.77;;;1.00;99.90;;;;;;5042002;28;20201;-61
2023/01/20 05:55:41;;;;;;;40.23;16.77;;;0.90;99.90;;;;;;5040090;28;20204;-62
2023/01/20 05:58:08;;;;;;;36.10;16.03;;;0.90;99.90;;;;;;5041810;28;20255;-61
2023/01/20 06:00:35;;;;;;;36.73;16.40;;;0.90;99.90;;;;;;5036539;28;20626;-61
2023/01/20 06:03:03;;;;;;;33.47;13.77;;;0.90;99.90;;;;;;5034742;28;20675;-62
2023/01/20 06:05:30;;;;;;;30.03;14.70;;;0.80;99.90;;;;;;5033490;28;20217;-61
2023/01/20 06:07:57;;;;;;;42.40;17.23;;;0.80;99.90;;;;;;5033023;28;20533;-61
2023/01/20 06:10:26;;;;;;;31.03;14.27;;;0.90;99.90;;;;;;5039753;28;20619;-62
2023/01/20 06:12:54;;;;;;;36.03;15.93;;;0.90;99.90;;;;;;5040408;28;20249;-61
2023/01/20 06:15:23;;;;;;;34.43;15.60;;;0.80;99.90;;;;;;5040937;28;20213;-62
2023/01/20 06:17:51;;;;;;;40.87;15.47;;;0.80;99.90;;;;;;5041328;28;20700;-63
2023/01/20 06:20:18;;;;;;;32.50;16.03;;;0.80;99.90;;;;;;5040568;28;20201;-61
2023/01/20 06:22:45;;;;;;;31.00;15.00;;;0.80;99.90;;;;;;5037279;28;20554;-62
2023/01/20 06:25:12;;;;;;;35.97;16.47;;;0.80;99.90;;;;;;5031784;28;20286;-61
2023/01/20 06:27:39;;;;;;;33.23;15.40;;;0.80;99.90;;;;;;5031037;28;20264;-61
2023/01/20 06:30:07;;;;;;;38.60;16.17;;;0.90;99.90;;;;;;5031285;28;20640;-61
2023/01/20 06:32:34;;;;;;;36.83;14.43;;;0.80;99.90;;;;;;5032764;28;20297;-61
2023/01/20 06:35:00;;;;;;;35.93;16.13;;;0.90;99.90;;;;;;5031147;28;20209;-61
2023/01/20 06:37:27;;;;;;;34.33;15.63;;;0.90;99.90;;;;;;5031834;28;20270;-61
2023/01/20 06:39:54;;;;;;;31.63;14.70;;;0.90;99.90;;;;;;5031753;28;20274;-61
2023/01/20 06:42:21;;;;;;;31.77;13.60;;;0.90;99.90;;;;;;5032694;28;20692;-63
2023/01/20 06:44:47;;;;;;;35.13;17.10;;;0.80;99.90;;;;;;5038494;28;20664;-62
2023/01/20 06:47:14;;;;;;;33.30;15.03;;;0.90;99.90;;;;;;5041314;28;20669;-61
2023/01/20 06:49:41;;;;;;;37.13;15.03;;;0.90;99.90;;;;;;5034175;28;20239;-61
2023/01/20 06:52:08;;;;;;;37.33;15.70;;;0.90;99.90;;;;;;5032170;28;20210;-62
2023/01/20 06:54:35;;;;;;;42.17;16.30;;;0.90;99.90;;;;;;5033016;28;20195;-62
2023/01/20 06:57:02;;;;;;;38.60;15.63;;;0.90;99.90;;;;;;5031620;28;20239;-61
2023/01/20 06:59:28;;;;;;;35.73;15.03;;;1.00;99.90;;;;;;5028635;28;20925;-62
2023/01/20 07:01:55;;;;;;;29.10;14.03;;;0.90;99.90;;;;;;5023528;28;20310;-61
2023/01/20 07:04:22;;;;;;;28.90;15.10;;;0.90;99.90;;;;;;5032983;28;20199;-62
2023/01/20 07:06:49;;;;;;;35.33;14.77;;;0.90;99.90;;;;;;5030291;28;20227;-61
2023/01/20 07:09:16;;;;;;;31.40;14.40;;;1.00;99.90;;;;;;5032126;28;20209;-63
2023/01/20 07:11:43;;;;;;;30.60;14.10;;;0.90;99.90;;;;;;5028905;28;20630;-61
2023/01/20 07:14:09;;;;;;;33.00;15.80;;;1.00;99.90;;;;;;5032407;28;20195;-61
2023/01/20 07:16:36;;;;;;;33.97;14.83;;;1.00;99.90;;;;;;5029549;28;20208;-60
2023/01/20 07:19:04;;;;;;;35.20;15.63;;;1.00;99.90;;;;;;5029453;28;20290;-61
2023/01/20 07:21:30;;;;;;;38.87;15.40;;;1.00;99.90;;;;;;5040875;28;20716;-61
2023/01/20 07:24:01;;;;;;;31.90;14.50;;;1.00;99.90;;;;;;5029147;28;20207;-60
2023/01/20 07:26:28;;;;;;;35.10;14.07;;;1.00;99.90;;;;;;5032445;28;20248;-60
2023/01/20 07:28:56;;;;;;;28.93;13.83;;;1.10;99.90;;;;;;5030515;28;20211;-60
2023/01/20 07:31:27;;;;;;;28.83;14.77;;;1.00;99.90;;;;;;5027925;28;20213;-61
2023/01/20 07:33:54;;;;;;;33.87;15.40;;;1.00;99.90;;;;;;5019222;28;20191;-60
2023/01/20 07:36:21;;;;;;;29.70;13.33;;;1.00;99.90;;;;;;4667286;28;9999978;-62
2023/01/20 07:38:49;;;;;;;36.43;16.07;;;1.10;99.90;;;;;;5008927;28;20680;-61
2023/01/20 07:41:18;;;;;;;31.53;13.60;;;1.10;99.90;;;;;;5024353;28;20304;-61
2023/01/20 07:43:47;;;;;;;32.27;13.87;;;1.10;99.90;;;;;;5026470;28;20250;-61
2023/01/20 07:46:14;;;;;;;31.77;13.60;;;1.10;99.90;;;;;;5025571;28;20309;-59
2023/01/20 07:48:41;;;;;;;32.70;15.37;;;1.10;99.90;;;;;;5019931;28;20221;-62
2023/01/20 07:51:11;;;;;;;32.00;16.00;;;1.10;99.90;;;;;;5012639;28;20215;-58
2023/01/20 07:53:49;;;;;;;32.13;14.23;;;1.10;99.90;;;;;;5027497;28;20301;-60
2023/01/20 07:56:18;;;;;;;34.13;15.00;;;1.10;99.90;;;;;;5022849;28;20355;-58
2023/01/20 07:58:45;;;;;;;34.70;15.50;;;1.10;99.90;;;;;;5028660;28;20199;-58
2023/01/20 08:01:14;;;;;;;31.40;15.47;;;1.10;99.90;;;;;;5024437;28;20290;-58
2023/01/20 08:03:42;;;;;;;32.90;16.43;;;1.10;99.90;;;;;;5024886;28;20247;-61
2023/01/20 08:06:11;;;;;;;32.87;14.70;;;1.10;99.90;;;;;;5026424;28;20202;-59
2023/01/20 08:08:38;;;;;;;33.30;15.70;;;1.10;99.90;;;;;;5020173;28;20702;-59
2023/01/20 08:11:06;;;;;;;33.40;15.57;;;1.20;99.90;;;;;;5018428;28;20192;-59
2023/01/20 08:13:33;;;;;;;30.97;14.83;;;1.10;99.90;;;;;;5021152;28;20204;-60
2023/01/20 08:16:02;;;;;;;30.77;14.73;;;1.10;99.90;;;;;;5023003;28;20211;-59
2023/01/20 08:18:31;;;;;;;25.30;13.60;;;1.10;99.90;;;;;;5023949;28;20669;-58
2023/01/20 08:20:58;;;;;;;27.97;12.77;;;1.10;99.90;;;;;;5029018;28;20258;-58
2023/01/20 08:23:25;;;;;;;31.63;14.60;;;1.00;99.90;;;;;;5032864;28;20215;-59
2023/01/20 08:26:00;;;;;;;26.00;12.90;;;1.00;99.90;;;;;;5026953;28;20214;-59
2023/01/20 08:28:28;;;;;;;23.40;11.27;;;1.10;99.90;;;;;;5013180;28;20754;-62
2023/01/20 08:31:06;;;;;;;26.40;12.80;;;1.10;99.90;;;;;;5013640;28;20365;-60
2023/01/20 08:33:33;;;;;;;24.97;12.23;;;1.10;99.90;;;;;;5022451;28;20203;-60
2023/01/20 08:36:15;;;;;;;27.13;12.67;;;1.00;99.90;;;;;;5024873;28;20652;-62
2023/01/20 08:38:45;;;;;;;24.57;11.53;;;1.20;99.90;;;;;;5016617;28;20629;-66
2023/01/20 08:41:15;;;;;;;23.80;12.40;;;1.10;99.90;;;;;;5014062;28;20565;-62
2023/01/20 08:43:42;;;;;;;24.27;11.57;;;1.10;99.90;;;;;;5011134;28;20243;-59
2023/01/20 08:46:12;;;;;;;21.67;12.00;;;1.10;99.90;;;;;;5010769;28;20290;-60
2023/01/20 08:48:40;;;;;;;24.07;11.83;;;1.20;99.90;;;;;;5017704;28;20286;-64
2023/01/20 08:51:19;;;;;;;21.77;11.60;;;1.10;99.90;;;;;;5022672;28;20230;-59
2023/01/20 08:53:47;;;;;;;23.80;10.60;;;1.10;99.90;;;;;;5017138;28;20239;-62
2023/01/20 08:56:14;;;;;;;24.90;10.40;;;1.20;99.90;;;;;;5025318;28;20222;-60
2023/01/20 08:58:41;;;;;;;20.83;10.27;;;1.20;99.90;;;;;;5027025;28;20733;-58
2023/01/20 09:01:17;;;;;;;20.17;11.17;;;1.30;99.90;;;;;;5027746;28;21858;-61
2023/01/20 09:03:44;;;;;;;21.63;11.47;;;1.30;99.90;;;;;;5024690;28;20207;-60
2023/01/20 09:06:30;;;;;;;23.67;10.70;;;1.20;99.90;;;;;;5026237;28;20220;-59
2023/01/20 09:08:57;;;;;;;22.17;11.57;;;1.30;99.90;;;;;;5020891;28;20259;-59
2023/01/20 09:11:24;;;;;;;21.37;10.17;;;1.30;99.90;;;;;;5012356;28;20291;-61
2023/01/20 09:13:51;;;;;;;21.80;10.97;;;1.30;99.90;;;;;;5028022;28;20202;-59
2023/01/20 09:16:18;;;;;;;21.27;11.17;;;1.20;99.90;;;;;;5023011;28;20194;-60
2023/01/20 09:18:45;;;;;;;18.83;10.20;;;1.30;99.90;;;;;;5037012;28;20196;-60
2023/01/20 09:21:12;;;;;;;25.83;11.00;;;1.20;99.90;;;;;;5035186;28;20250;-60
2023/01/20 09:23:41;;;;;;;17.73;9.77;;;1.30;99.90;;;;;;5033482;28;20207;-60
2023/01/20 09:26:08;;;;;;;18.40;11.27;;;1.20;99.90;;;;;;5035387;28;20216;-57
2023/01/20 09:28:35;;;;;;;19.20;10.23;;;1.20;99.90;;;;;;5038059;28;20301;-59
2023/01/20 09:31:07;;;;;;;20.00;10.60;;;1.20;99.90;;;;;;5036347;28;20682;-58
2023/01/20 09:33:37;;;;;;;17.73;10.50;;;1.10;99.90;;;;;;5036964;28;20203;-60
2023/01/20 09:36:07;;;;;;;18.67;10.27;;;1.10;99.90;;;;;;5037111;28;20258;-60
2023/01/20 09:44:31;;;;;;;24.73;10.37;;;1.10;99.90;;;;;;5037353;28;20213;-59
2023/01/20 09:47:26;;;;;;;19.27;10.87;;;1.10;99.90;;;;;;5037363;28;20743;-61
2023/01/20 09:53:24;;;;;;;21.60;11.97;;;1.10;99.90;;;;;;5036830;28;20672;-59
2023/01/20 09:56:01;;;;;;;19.20;10.20;;;1.10;99.90;;;;;;5035907;28;20542;-58
2023/01/20 09:58:44;;;;;;;21.63;10.37;;;1.20;99.90;;;;;;5037888;28;20235;-58
2023/01/20 10:01:35;;;;;;;22.53;9.73;;;1.20;99.90;;;;;;5037128;28;20588;-58
2023/01/20 10:04:26;;;;;;;19.30;9.70;;;1.20;99.90;;;;;;5036340;28;20310;-58
2023/01/20 10:07:10;;;;;;;17.13;10.10;;;1.20;99.90;;;;;;5034985;28;20223;-62
2023/01/20 10:10:01;;;;;;;19.97;10.60;;;1.30;99.90;;;;;;5037544;28;20202;-60
2023/01/20 10:12:50;;;;;;;16.17;8.70;;;1.30;99.90;;;;;;5037425;28;20717;-59
2023/01/20 10:15:33;;;;;;;14.33;8.37;;;1.30;99.90;;;;;;5035567;28;20214;-60
2023/01/20 10:18:13;;;;;;;14.90;7.83;;;1.20;99.90;;;;;;5037261;28;20674;-59
2023/01/20 10:20:50;;;;;;;16.27;9.40;;;1.20;99.90;;;;;;5051159;28;20212;-58
2023/01/20 10:23:28;;;;;;;11.43;7.37;;;1.20;99.90;;;;;;5035548;28;20214;-58
2023/01/20 10:26:15;;;;;;;16.17;8.00;;;1.20;99.90;;;;;;5035506;28;20203;-59
2023/01/20 10:28:51;;;;;;;13.30;7.57;;;1.20;99.90;;;;;;5020015;28;20215;-58
2023/01/20 10:31:25;;;;;;;13.03;6.83;;;1.20;99.90;;;;;;5040421;28;20645;-58
2023/01/20 10:33:56;;;;;;;13.77;7.30;;;1.20;99.90;;;;;;5040219;28;20254;-59
2023/01/20 10:36:29;;;;;;;11.97;7.00;;;1.30;99.90;;;;;;5040570;28;20303;-59
2023/01/20 10:39:09;;;;;;;14.60;8.10;;;1.20;99.90;;;;;;5038082;28;20701;-61
2023/01/20 10:41:39;;;;;;;10.30;6.70;;;1.30;99.90;;;;;;5039985;28;20681;-61
2023/01/20 10:44:11;;;;;;;13.73;6.07;;;1.30;99.90;;;;;;5039345;28;20208;-61
2023/01/20 10:47:09;;;;;;;11.83;6.77;;;1.30;99.90;;;;;;5038598;28;20292;-63
2023/01/20 10:50:00;;;;;;;10.63;6.47;;;1.40;99.90;;;;;;5039868;28;20266;-61
2023/01/20 10:52:52;;;;;;;10.93;6.33;;;1.40;99.90;;;;;;5040525;28;20228;-61
2023/01/20 10:55:43;;;;;;;9.60;5.63;;;1.40;99.90;;;;;;5040463;28;20203;-61
2023/01/20 10:58:28;;;;;;;9.17;5.47;;;1.30;99.90;;;;;;5038947;28;20243;-61
2023/01/20 11:00:58;;;;;;;11.10;6.47;;;1.30;99.90;;;;;;5038647;28;20308;-61
2023/01/20 11:03:25;;;;;;;10.10;6.27;;;1.50;99.90;;;;;;5040726;28;20213;-61
2023/01/20 11:05:52;;;;;;;9.47;5.67;;;1.60;99.90;;;;;;5039379;28;20196;-61
2023/01/20 11:08:27;;;;;;;10.40;5.67;;;1.60;99.90;;;;;;5039593;28;20385;-61
2023/01/20 11:10:58;;;;;;;9.70;6.00;;;1.70;99.90;;;;;;5027633;28;20571;-60
2023/01/20 11:13:25;;;;;;;8.47;5.77;;;1.60;99.90;;;;;;5032561;28;20308;-61
2023/01/20 11:16:10;;;;;;;10.07;6.27;;;1.70;99.90;;;;;;5024708;28;20209;-61
2023/01/20 11:18:37;;;;;;;8.80;5.63;;;1.70;99.90;;;;;;5025424;28;20200;-61
2023/01/20 11:21:12;;;;;;;8.97;5.60;;;1.90;99.90;;;;;;5030148;28;20212;-61
2023/01/20 11:23:51;;;;;;;7.50;5.53;;;1.90;99.90;;;;;;5015961;28;20211;-60
2023/01/20 11:26:37;;;;;;;11.10;6.00;;;2.00;99.90;;;;;;5026350;28;20605;-61
2023/01/20 11:29:10;;;;;;;8.33;5.63;;;2.00;99.90;;;;;;5039214;28;20212;-62
2023/01/20 11:31:51;;;;;;;10.07;6.20;;;2.00;99.90;;;;;;5026991;28;20655;-61
2023/01/20 11:34:27;;;;;;;8.97;5.87;;;2.10;99.90;;;;;;5024967;28;20206;-61
2023/01/20 11:37:03;;;;;;;10.83;6.37;;;2.10;99.90;;;;;;5017151;28;20317;-61
2023/01/20 11:39:56;;;;;;;8.47;5.53;;;2.20;99.90;;;;;;5022808;28;20283;-62
2023/01/20 11:42:25;;;;;;;9.50;5.93;;;2.20;99.90;;;;;;5019072;28;20712;-60
2023/01/20 11:44:52;;;;;;;8.77;6.17;;;2.20;99.90;;;;;;5022867;28;20205;-60
2023/01/20 11:47:33;;;;;;;11.23;6.63;;;2.30;99.90;;;;;;5023788;28;20209;-60
2023/01/20 11:50:03;;;;;;;11.50;6.33;;;2.30;99.90;;;;;;5028617;28;20318;-61
2023/01/20 11:52:31;;;;;;;10.70;7.10;;;2.40;99.90;;;;;;5014836;28;20234;-60
2023/01/20 11:55:16;;;;;;;10.43;6.53;;;2.40;99.90;;;;;;5018853;28;20254;-60
2023/01/20 11:57:56;;;;;;;11.37;6.87;;;2.50;99.90;;;;;;5022892;28;20224;-61
2023/01/20 12:00:40;;;;;;;12.03;7.53;;;2.50;99.90;;;;;;5020355;28;20634;-61
2023/01/20 12:03:09;;;;;;;12.97;7.00;;;2.50;99.90;;;;;;5014869;28;20214;-61
2023/01/20 12:05:59;;;;;;;12.93;7.53;;;2.60;99.90;;;;;;5012080;28;20204;-61
2023/01/20 12:08:45;;;;;;;12.90;8.43;;;2.60;99.90;;;;;;5018533;28;20697;-61
2023/01/20 12:11:27;;;;;;;12.33;7.50;;;2.50;99.90;;;;;;5020317;28;20302;-61
2023/01/20 12:14:18;;;;;;;15.70;8.60;;;2.60;99.90;;;;;;5024316;28;20270;-62
2023/01/20 12:16:55;;;;;;;12.93;8.23;;;2.60;99.90;;;;;;5017903;28;20216;-60
2023/01/20 12:19:31;;;;;;;17.30;8.80;;;2.50;99.90;;;;;;5016572;28;20211;-60
2023/01/20 12:22:02;;;;;;;15.43;8.73;;;2.50;99.90;;;;;;5021112;28;20745;-68
2023/01/20 12:27:34;;;;;;;13.50;8.23;;;2.50;99.90;;;;;;5027200;28;20231;-63
2023/01/20 12:30:14;;;;;;;15.37;8.57;;;2.50;99.90;;;;;;5025699;28;20201;-62
2023/01/20 12:32:41;;;;;;;14.83;9.03;;;2.40;99.90;;;;;;5032174;28;20212;-63
2023/01/20 12:35:13;;;;;;;13.60;8.73;;;2.50;99.90;;;;;;5021242;28;20203;-61
2023/01/20 12:37:56;;;;;;;13.83;8.57;;;2.50;99.90;;;;;;5022161;28;20232;-61
2023/01/20 12:40:48;;;;;;;11.93;8.30;;;2.40;99.90;;;;;;5024915;28;20237;-63
2023/01/20 12:43:38;;;;;;;15.03;8.20;;;2.40;99.90;;;;;;5032711;28;20261;-62
2023/01/20 12:46:37;;;;;;;13.37;8.37;;;2.50;99.90;;;;;;5029600;28;20284;-61
2023/01/20 12:49:40;;;;;;;11.97;7.37;;;2.50;99.90;;;;;;5028130;28;20323;-61
2023/01/20 12:52:34;;;;;;;14.67;8.90;;;2.50;99.90;;;;;;5024680;28;20206;-61
2023/01/20 12:55:11;;;;;;;12.33;7.77;;;2.50;99.90;;;;;;5018757;28;20703;-61
2023/01/20 12:57:55;;;;;;;16.00;8.93;;;2.30;99.90;;;;;;5027829;28;20293;-63
2023/01/20 13:00:48;;;;;;;15.07;8.77;;;2.20;99.90;;;;;;5025426;28;20215;-61
2023/01/20 13:03:49;;;;;;;13.53;8.50;;;2.50;99.90;;;;;;5022452;28;20537;-61
2023/01/20 13:06:19;;;;;;;11.87;8.27;;;2.50;99.90;;;;;;5030324;28;20284;-61
2023/01/20 13:08:59;;;;;;;12.90;8.30;;;2.60;99.90;;;;;;5020855;28;20223;-61
2023/01/20 13:11:43;;;;;;;14.13;8.43;;;2.40;99.90;;;;;;5029535;28;20206;-61
2023/01/20 13:14:18;;;;;;;16.07;9.53;;;2.10;99.90;;;;;;5019994;28;20686;-62
2023/01/20 13:17:12;;;;;;;14.30;9.03;;;2.00;99.90;;;;;;5030906;28;20291;-61
2023/01/20 13:19:41;;;;;;;13.00;8.90;;;2.10;99.90;;;;;;5025820;28;20834;-61